フィレンツェ の空港の天気 - METARとTAF

フィレンツェ・ペレトラ空港 ( LIRQ / FLR ) - イタリア フィレンツェ
飛行場実況気象(Metar)
観測時間09/23 14:20 CEST (09/23 12:20 UTC)
風向・風速不定 2m/s
視程10km以上
天気現象
全天の4割程度の雲 雲底高度 1220m
気温24℃
湿度47%
気圧1021hPa
METARLIRQ 231220Z VRB03KT 9999 SCT040 24/12 Q1021
過去の天気等 Google飛行場航空写真 Wunderground天気予報

過去48時間のMETAR

飛行場予報(TAF)
発表時間: 9/23 13:00 CEST (9/23 11:00 UTC)
予報対象時間: 23日14時 CEST ~ 24日14時 CEST
風向・風速不定 2m/s
視程10km以上
少しの雲 雲底高度 910m
全天の4割程度の雲 雲底高度 1,520m
24日8時 CEST ~ 24日14時 CEST に一時的に
天気現象しゅう雨
TAF LIRQ 231100Z 2312/2412 VRB04KT 9999 FEW030 SCT050
TEMPO 2406/2412 SHRA